Ana Sayfa
METAR-TAF:

METAR-TAF

Havaalanları :

Varşova Chopin Havalimanı

Varşova, Polonya

Enlem: 52-10N, Boylam: 020-58E, yükseklik: 106 m

Güncel hava durumu gözlemi

Rapor saat 14:00 UTC de 36 dakika önce yapıldı.
Rüzgar doğu/güneydoğudan 8 kt
Sıcaklık 20°C
Nem 49%
Basınç 1022 hPa
Görüş mesafesi 10 km veya daha fazla
1500 m altında bulut yok ve kümülonimbus yok

METAR: EPWA 151400Z 12008KT CAVOK 20/09 Q1022 NOSIG

Saat: 16:36 (14:36 UTC)

Tahmin

Rapor saat 14:30 UTC de 6 dakika önce yapıldı.
Ayın 15'si saat 15 UTC'den ayın 16'si saat 15 UTC'ye kadar geçerli Tahmin
Rüzgar doğu/güneydoğudan 5 kt
Görüş mesafesi 10 km veya daha fazla
1500 m altında bulut yok ve kümülonimbus yok

TAF: EPWA 151430Z 1515/1615 12005KT CAVOK

4.000'den fazla havaalanı için hava durumu gözlemleri ve tahminleri (METAR ve TAF raporları).

Kullanılabilir istasyonlar harita üzerinde sarı ve kırmızı noktalarla gösterilir.

İstasyonun adını görmek için fareyi noktanın üzerinde gezdirin.

Sonrasında hava gözlem ve tahminlerini görmek için tıklayın.

Haritayı değiştirmek için: yaklaştırmak için siyah artı işaretli yeşil düğmeye ve uzaklaştırmak için de eksi işaretli düğmeye hızla tıklayın; bitişik haritalar için yeşil okları kullanın.


METAR-TAF: